createdAt,value
2022-10-22T00:00:58.061Z,16.25
2022-10-22T00:03:25.124Z,18.90
2022-10-22T00:05:52.136Z,19.98
2022-10-22T00:08:19.051Z,19.55
2022-10-22T00:10:46.407Z,19.48
2022-10-22T00:13:13.346Z,19.23
2022-10-22T00:15:40.421Z,19.23
2022-10-22T00:18:07.301Z,23.58
2022-10-22T00:20:34.436Z,19.08
2022-10-22T00:23:01.312Z,22.35
2022-10-22T00:28:18.904Z,17.88
2022-10-22T00:30:45.944Z,18.42
2022-10-22T00:33:13.693Z,18.33
2022-10-22T00:35:40.672Z,23.60
2022-10-22T00:38:07.774Z,18.35
2022-10-22T00:40:34.643Z,19.20
2022-10-22T00:43:01.578Z,19.13
2022-10-22T00:45:28.699Z,22.42
2022-10-22T00:48:04.887Z,18.52
2022-10-22T00:50:40.504Z,18.65
2022-10-22T00:53:14.405Z,19.77
2022-10-22T00:55:44.115Z,21.98
2022-10-22T00:58:12.977Z,20.92
2022-10-22T01:00:40.228Z,16.08
2022-10-22T01:03:07.674Z,18.92
2022-10-22T01:05:44.048Z,20.48
2022-10-22T01:08:25.473Z,16.52
2022-10-22T01:11:15.704Z,22.15
2022-10-22T01:14:15.110Z,18.67
2022-10-22T01:20:16.341Z,17.48
2022-10-22T01:23:47.013Z,17.17
2022-10-22T01:26:35.239Z,17.60
2022-10-22T01:29:12.155Z,16.63
2022-10-22T01:31:53.077Z,16.55
2022-10-22T01:34:22.411Z,16.98
2022-10-22T01:36:52.823Z,18.10
2022-10-22T01:39:21.658Z,18.27
2022-10-22T01:41:48.435Z,17.10
2022-10-22T01:47:23.002Z,17.23
2022-10-22T01:50:40.144Z,16.48
2022-10-22T01:54:04.065Z,18.90
2022-10-22T01:56:55.285Z,14.38
2022-10-22T01:59:42.344Z,16.83
2022-10-22T02:04:58.558Z,14.17
2022-10-22T02:07:31.309Z,16.52
2022-10-22T02:10:00.766Z,18.95
2022-10-22T02:12:31.258Z,14.57
2022-10-22T02:15:00.829Z,17.48
2022-10-22T02:17:31.946Z,18.85
2022-10-22T02:20:11.090Z,18.05
2022-10-22T02:22:40.060Z,17.33
2022-10-22T02:25:09.035Z,17.75
2022-10-22T02:27:51.483Z,19.27
2022-10-22T02:30:21.613Z,18.10
2022-10-22T02:32:52.015Z,21.63
2022-10-22T02:35:24.280Z,16.05
2022-10-22T02:37:52.272Z,19.15
2022-10-22T02:40:20.417Z,18.30
2022-10-22T02:42:49.781Z,18.38
2022-10-22T02:45:19.107Z,18.55
2022-10-22T02:47:46.460Z,15.85
2022-10-22T02:50:13.647Z,17.48
2022-10-22T02:52:41.026Z,17.50
2022-10-22T02:55:09.071Z,19.17
2022-10-22T02:57:35.988Z,16.40
2022-10-22T03:00:07.327Z,18.92
2022-10-22T03:02:34.514Z,20.98
2022-10-22T03:05:01.362Z,19.50
2022-10-22T03:07:28.449Z,16.80
2022-10-22T03:09:55.444Z,15.65
2022-10-22T03:12:22.542Z,18.17
2022-10-22T03:14:49.444Z,18.27
2022-10-22T03:17:16.552Z,17.98
2022-10-22T03:19:43.646Z,17.63
2022-10-22T03:22:17.805Z,16.30
2022-10-22T03:24:49.371Z,18.52
2022-10-22T03:27:18.811Z,16.98
2022-10-22T03:29:46.957Z,15.55
2022-10-22T03:32:13.987Z,16.48
2022-10-22T03:34:41.030Z,16.50
2022-10-22T03:37:08.339Z,29.20
2022-10-22T03:39:37.256Z,19.45
2022-10-22T03:42:05.442Z,18.17
2022-10-22T03:44:33.261Z,15.90
2022-10-22T03:47:02.556Z,17.85
2022-10-22T03:49:29.965Z,15.85
2022-10-22T03:51:57.280Z,14.05
2022-10-22T03:54:24.660Z,16.55
2022-10-22T03:56:51.496Z,63.30
2022-10-22T03:59:18.684Z,16.70
2022-10-22T04:01:45.534Z,16.33
2022-10-22T04:04:12.522Z,16.45
2022-10-22T04:06:39.856Z,22.70
2022-10-22T04:09:06.859Z,18.40
2022-10-22T04:11:33.925Z,16.73
2022-10-22T04:14:00.914Z,17.20
2022-10-22T04:16:32.749Z,16.65
2022-10-22T04:18:59.888Z,15.57
2022-10-22T04:21:26.835Z,18.15
2022-10-22T04:23:53.949Z,18.23
2022-10-22T04:26:21.152Z,20.25
2022-10-22T04:28:50.152Z,16.60
2022-10-22T04:31:24.854Z,15.43
2022-10-22T04:33:59.270Z,19.33
2022-10-22T04:36:28.502Z,20.67
2022-10-22T04:39:00.804Z,17.77
2022-10-22T04:41:31.683Z,16.90
2022-10-22T04:43:59.622Z,18.23
2022-10-22T04:46:29.643Z,20.25
2022-10-22T04:48:56.898Z,17.75
2022-10-22T04:51:26.479Z,18.85
2022-10-22T04:53:54.079Z,19.20
2022-10-22T04:56:22.793Z,17.48
2022-10-22T04:58:58.453Z,16.92
2022-10-22T05:01:29.686Z,19.23
2022-10-22T05:04:00.595Z,16.95
2022-10-22T05:06:29.068Z,16.65
2022-10-22T05:09:01.220Z,20.80
2022-10-22T05:11:36.873Z,21.25
2022-10-22T05:14:06.581Z,17.87
2022-10-22T05:16:34.698Z,36.80
2022-10-22T05:19:02.901Z,17.80
2022-10-22T05:21:30.289Z,22.13
2022-10-22T05:23:59.884Z,23.40
2022-10-22T05:26:28.321Z,20.10
2022-10-22T05:28:55.537Z,22.73
2022-10-22T05:31:22.601Z,24.02
2022-10-22T05:33:49.484Z,16.92
2022-10-22T05:36:22.019Z,18.02
2022-10-22T05:38:50.089Z,18.05
2022-10-22T05:41:23.505Z,20.48
2022-10-22T05:43:51.154Z,18.02
2022-10-22T05:46:22.986Z,20.90
2022-10-22T05:48:59.445Z,22.90
2022-10-22T05:51:29.102Z,17.33
2022-10-22T05:54:03.085Z,18.30
2022-10-22T05:56:32.186Z,25.80
2022-10-22T05:58:59.587Z,20.05
2022-10-22T06:01:32.852Z,17.10
2022-10-22T06:04:03.398Z,19.25
2022-10-22T06:06:46.914Z,17.48
2022-10-22T06:09:25.661Z,20.80
2022-10-22T06:11:53.803Z,17.42
2022-10-22T06:14:21.765Z,22.73
2022-10-22T06:16:50.038Z,22.67
2022-10-22T06:19:20.127Z,22.48
2022-10-22T06:21:47.876Z,22.17
2022-10-22T06:24:15.981Z,22.88
2022-10-22T06:26:43.107Z,23.33
2022-10-22T06:29:12.577Z,20.95
2022-10-22T06:31:39.571Z,22.60
2022-10-22T06:34:13.356Z,19.15
2022-10-22T06:36:43.354Z,26.42
2022-10-22T06:39:17.027Z,18.35
2022-10-22T06:41:43.946Z,18.20
2022-10-22T06:44:16.220Z,17.52
2022-10-22T06:46:43.764Z,17.95
2022-10-22T06:49:16.787Z,21.48
2022-10-22T06:51:44.488Z,18.05
2022-10-22T06:54:11.854Z,18.17
2022-10-22T06:56:39.024Z,20.98
2022-10-22T06:59:06.313Z,22.83
2022-10-22T07:01:35.543Z,19.65
2022-10-22T07:04:14.630Z,17.23
2022-10-22T07:06:46.464Z,18.45
2022-10-22T07:09:14.710Z,21.23
2022-10-22T07:11:44.763Z,19.33
2022-10-22T07:14:13.362Z,20.10
2022-10-22T07:16:49.182Z,14.35
2022-10-22T07:19:16.777Z,23.58
2022-10-22T07:21:43.842Z,16.70
2022-10-22T07:24:11.744Z,17.17
2022-10-22T07:26:39.907Z,19.33
2022-10-22T07:29:07.638Z,19.23
2022-10-22T07:31:34.521Z,17.25
2022-10-22T07:34:01.851Z,21.58
2022-10-22T07:36:28.849Z,16.65
2022-10-22T07:38:58.967Z,17.65
2022-10-22T07:41:28.361Z,17.73
2022-10-22T07:43:56.562Z,17.13
2022-10-22T07:46:24.739Z,17.90
2022-10-22T07:48:52.059Z,16.77
2022-10-22T07:51:19.939Z,17.50
2022-10-22T07:53:46.989Z,16.90
2022-10-22T07:56:14.012Z,23.02
2022-10-22T07:58:41.683Z,18.58
2022-10-22T08:01:08.942Z,22.25
2022-10-22T08:03:36.114Z,18.05
2022-10-22T08:06:03.497Z,18.70
2022-10-22T08:08:30.957Z,16.77
2022-10-22T08:11:00.953Z,14.52
2022-10-22T08:13:30.926Z,17.48
2022-10-22T08:16:00.138Z,17.67
2022-10-22T08:18:27.694Z,17.05
2022-10-22T08:20:55.095Z,19.27
2022-10-22T08:23:25.963Z,18.50
2022-10-22T08:25:54.653Z,17.70
2022-10-22T08:28:22.459Z,17.48
2022-10-22T08:30:49.826Z,33.05
2022-10-22T08:33:16.887Z,18.02
2022-10-22T08:35:49.680Z,18.35
2022-10-22T08:38:17.913Z,17.27
2022-10-22T08:40:52.008Z,17.30
2022-10-22T08:43:42.154Z,17.63
2022-10-22T08:46:47.661Z,20.63
2022-10-22T08:49:23.233Z,18.85
2022-10-22T08:51:51.185Z,21.40
2022-10-22T08:54:36.939Z,17.63
2022-10-22T08:57:09.843Z,18.83
2022-10-22T09:00:04.557Z,20.02
2022-10-22T09:02:50.237Z,17.45
2022-10-22T09:05:39.458Z,16.88
2022-10-22T09:08:12.885Z,17.75
2022-10-22T09:10:48.871Z,20.80
2022-10-22T09:13:20.416Z,18.00
2022-10-22T09:15:55.325Z,20.42
2022-10-22T09:18:37.447Z,22.05
2022-10-22T09:21:37.173Z,16.95
2022-10-22T09:24:10.263Z,18.10
2022-10-22T09:26:39.686Z,16.00
2022-10-22T09:29:14.578Z,14.43
2022-10-22T09:31:41.861Z,17.58
2022-10-22T09:34:08.801Z,15.27
2022-10-22T09:36:37.846Z,19.50
2022-10-22T09:39:05.074Z,21.58
2022-10-22T09:41:32.047Z,18.85
2022-10-22T09:43:59.509Z,18.73
2022-10-22T09:46:43.866Z,19.35
2022-10-22T09:49:18.391Z,18.55
2022-10-22T09:51:59.977Z,14.75
2022-10-22T09:54:32.787Z,17.10
2022-10-22T09:57:14.629Z,15.57
2022-10-22T09:59:45.528Z,17.02
2022-10-22T10:02:37.536Z,18.45
2022-10-22T10:05:07.249Z,19.25
2022-10-22T10:07:37.023Z,16.98
2022-10-22T10:10:25.794Z,16.65
2022-10-22T10:13:16.121Z,16.67
2022-10-22T10:16:10.251Z,15.48
2022-10-22T10:18:58.492Z,16.70
2022-10-22T10:21:40.991Z,20.17
2022-10-22T10:24:41.288Z,18.70
2022-10-22T10:27:19.967Z,16.15
2022-10-22T10:30:14.148Z,17.70
2022-10-22T10:32:58.118Z,20.67
2022-10-22T10:35:55.167Z,16.48
2022-10-22T10:39:00.311Z,18.08
2022-10-22T10:42:01.314Z,20.15
2022-10-22T10:45:03.937Z,14.15
2022-10-22T10:48:18.913Z,23.20
2022-10-22T10:51:04.421Z,15.43
2022-10-22T10:54:04.780Z,16.08
2022-10-22T10:56:48.645Z,16.60
2022-10-22T10:59:42.729Z,17.38
2022-10-22T11:02:41.963Z,15.88
2022-10-22T11:05:47.867Z,16.05
2022-10-22T11:08:32.802Z,15.65
2022-10-22T11:11:13.329Z,17.90
2022-10-22T11:13:53.513Z,20.60
2022-10-22T11:16:36.764Z,20.95
2022-10-22T11:19:46.154Z,25.58
2022-10-22T11:22:37.676Z,22.20
2022-10-22T11:25:17.283Z,17.98
2022-10-22T11:30:56.176Z,18.23
2022-10-22T11:33:27.586Z,23.20
2022-10-22T11:35:57.228Z,19.02
2022-10-22T11:38:27.004Z,21.35
2022-10-22T11:41:12.174Z,24.70
2022-10-22T11:43:59.446Z,20.70
2022-10-22T11:47:08.933Z,20.48
2022-10-22T11:49:59.077Z,20.83
2022-10-22T11:52:48.612Z,18.67
2022-10-22T11:55:45.964Z,21.45
2022-10-22T11:58:28.582Z,15.75
2022-10-22T12:01:09.887Z,16.90
2022-10-22T12:03:53.307Z,15.77
2022-10-22T12:06:26.992Z,15.15
2022-10-22T12:08:56.490Z,12.38
2022-10-22T12:11:39.516Z,13.30
2022-10-22T12:14:27.958Z,14.48
2022-10-22T12:17:07.625Z,13.35
2022-10-22T12:19:39.628Z,9.13
2022-10-22T12:22:06.340Z,12.70
2022-10-22T12:24:55.389Z,12.10
2022-10-22T12:27:36.242Z,9.27
2022-10-22T12:30:25.119Z,9.77
2022-10-22T12:33:00.331Z,8.57
2022-10-22T12:35:33.576Z,5.90
2022-10-22T12:38:17.552Z,6.80
2022-10-22T12:40:48.477Z,8.70
2022-10-22T12:43:26.539Z,7.82
2022-10-22T12:45:54.101Z,5.82
2022-10-22T12:48:28.720Z,8.65
2022-10-22T12:51:01.542Z,9.02
2022-10-22T12:53:33.244Z,6.38
2022-10-22T12:56:04.800Z,6.22
2022-10-22T12:58:46.414Z,6.50
2022-10-22T13:01:16.330Z,4.78
2022-10-22T13:03:50.790Z,5.50
2022-10-22T13:06:20.280Z,5.45
2022-10-22T13:09:23.892Z,7.57
2022-10-22T13:11:59.221Z,4.05
2022-10-22T13:14:31.592Z,5.93
2022-10-22T13:17:15.053Z,6.13
2022-10-22T13:20:05.437Z,2.50
2022-10-22T13:23:03.176Z,3.95
2022-10-22T13:25:33.876Z,3.50
2022-10-22T13:28:03.966Z,4.90
2022-10-22T13:30:36.861Z,5.25
2022-10-22T13:33:23.137Z,3.35
2022-10-22T13:38:20.554Z,6.32
2022-10-22T13:40:48.302Z,2.42
2022-10-22T13:43:16.847Z,3.35
2022-10-22T13:45:47.140Z,4.40
2022-10-22T13:48:21.981Z,5.10
2022-10-22T13:50:50.084Z,5.63
2022-10-22T13:53:24.235Z,5.05
2022-10-22T13:55:51.258Z,3.45
2022-10-22T13:58:44.529Z,2.78
2022-10-22T14:01:25.458Z,5.72
2022-10-22T14:03:58.098Z,6.63
2022-10-22T14:06:31.167Z,7.30
2022-10-22T14:09:09.105Z,5.35
2022-10-22T14:11:36.205Z,3.83
2022-10-22T14:14:04.928Z,6.57
2022-10-22T14:16:33.204Z,4.70
2022-10-22T14:22:20.774Z,5.35
2022-10-22T14:24:47.632Z,7.55
2022-10-22T14:27:15.930Z,4.72
2022-10-22T14:32:34.705Z,3.80
2022-10-22T14:35:01.637Z,11.55
2022-10-22T14:37:54.040Z,7.60
2022-10-22T14:40:21.286Z,8.07
2022-10-22T14:42:49.186Z,4.75
2022-10-22T14:45:23.972Z,4.55
2022-10-22T14:47:52.264Z,3.55
2022-10-22T14:50:19.212Z,6.28
2022-10-22T14:52:46.328Z,5.57
2022-10-22T14:55:17.036Z,6.57
2022-10-22T14:57:44.560Z,6.82
2022-10-22T15:00:22.688Z,10.00
2022-10-22T15:03:14.259Z,5.20
2022-10-22T15:05:45.477Z,6.60
2022-10-22T15:08:15.736Z,7.47
2022-10-22T15:10:42.677Z,3.92
2022-10-22T15:13:09.935Z,6.45
2022-10-22T15:15:40.236Z,5.13
2022-10-22T15:18:07.711Z,8.13
2022-10-22T15:20:34.560Z,7.88
2022-10-22T15:23:01.502Z,6.90
2022-10-22T15:25:29.798Z,6.07
2022-10-22T15:28:01.883Z,4.10
2022-10-22T15:30:31.902Z,6.65
2022-10-22T15:32:58.846Z,9.93
2022-10-22T15:35:28.493Z,9.02
2022-10-22T15:37:55.658Z,4.65
2022-10-22T15:40:22.512Z,6.40
2022-10-22T15:42:49.297Z,5.13
2022-10-22T15:45:16.541Z,8.27
2022-10-22T15:47:48.397Z,6.50
2022-10-22T15:50:16.028Z,6.90
2022-10-22T15:52:42.986Z,7.32
2022-10-22T15:55:10.639Z,5.13
2022-10-22T15:57:38.753Z,6.30
2022-10-22T16:00:07.550Z,10.70
2022-10-22T16:02:39.668Z,8.95
2022-10-22T16:05:07.344Z,7.05
2022-10-22T16:07:34.182Z,7.07
2022-10-22T16:10:01.672Z,9.80
2022-10-22T16:12:28.684Z,8.00
2022-10-22T16:14:55.711Z,6.90
2022-10-22T16:17:23.392Z,10.98
2022-10-22T16:19:50.241Z,10.75
2022-10-22T16:22:17.259Z,12.00
2022-10-22T16:24:44.138Z,12.57
2022-10-22T16:27:11.792Z,11.90
2022-10-22T16:29:41.977Z,17.52
2022-10-22T16:32:09.130Z,13.52
2022-10-22T16:34:36.187Z,11.63
2022-10-22T16:37:03.133Z,9.98
2022-10-22T16:39:30.097Z,14.77
2022-10-22T16:41:57.139Z,16.23
2022-10-22T16:44:23.988Z,18.17
2022-10-22T16:46:50.894Z,17.15
2022-10-22T16:49:18.029Z,14.45
2022-10-22T16:51:44.969Z,13.15
2022-10-22T16:54:13.988Z,12.75
2022-10-22T16:56:41.271Z,12.00
2022-10-22T16:59:08.301Z,23.27
2022-10-22T17:01:40.392Z,16.95
2022-10-22T17:04:08.788Z,13.77
2022-10-22T17:06:35.985Z,18.10
2022-10-22T17:09:03.674Z,13.45
2022-10-22T17:11:35.670Z,16.13
2022-10-22T17:14:29.637Z,9.02
2022-10-22T17:16:56.493Z,26.23
2022-10-22T17:19:24.165Z,15.32
2022-10-22T17:21:53.442Z,14.85
2022-10-22T17:24:20.777Z,14.25
2022-10-22T17:26:47.838Z,13.45
2022-10-22T17:29:14.820Z,11.73
2022-10-22T17:31:42.128Z,15.95
2022-10-22T17:34:16.120Z,16.40
2022-10-22T17:36:44.005Z,15.10
2022-10-22T17:39:18.409Z,17.00
2022-10-22T17:41:45.921Z,13.30
2022-10-22T17:44:15.505Z,16.30
2022-10-22T17:46:43.853Z,11.98
2022-10-22T17:49:20.584Z,15.07
2022-10-22T17:51:48.445Z,18.27
2022-10-22T17:54:15.621Z,13.50
2022-10-22T17:56:43.092Z,16.60
2022-10-22T17:59:13.580Z,15.60
2022-10-22T18:01:46.015Z,15.20
2022-10-22T18:04:19.617Z,19.48
2022-10-22T18:06:47.901Z,18.60
2022-10-22T18:09:18.643Z,15.88
2022-10-22T18:11:47.705Z,17.85
2022-10-22T18:14:14.749Z,15.77
2022-10-22T18:16:42.203Z,17.25
2022-10-22T18:19:10.063Z,18.27
2022-10-22T18:21:36.965Z,25.30
2022-10-22T18:24:04.427Z,20.05
2022-10-22T18:26:31.446Z,17.63
2022-10-22T18:28:59.074Z,27.40
2022-10-22T18:34:21.602Z,15.52
2022-10-22T18:36:50.837Z,14.32
2022-10-22T18:39:18.612Z,18.70
2022-10-22T18:42:10.738Z,14.40
2022-10-22T18:45:06.175Z,16.63
2022-10-22T18:47:33.253Z,14.65
2022-10-22T18:50:00.176Z,12.40
2022-10-22T18:52:27.303Z,12.73
2022-10-22T18:54:54.791Z,18.33
2022-10-22T18:57:21.771Z,17.90
2022-10-22T18:59:48.907Z,14.25
2022-10-22T19:02:17.197Z,10.60
2022-10-22T19:04:44.940Z,10.80
2022-10-22T19:07:13.337Z,13.15
2022-10-22T19:09:42.459Z,10.95
2022-10-22T19:12:09.827Z,20.00
2022-10-22T19:14:36.775Z,14.55
2022-10-22T19:17:03.640Z,17.92
2022-10-22T19:19:30.827Z,19.60
2022-10-22T19:24:51.924Z,19.65
2022-10-22T19:27:19.746Z,12.88
2022-10-22T19:29:48.621Z,19.23
2022-10-22T19:32:19.833Z,14.15
2022-10-22T19:34:50.309Z,16.55
2022-10-22T19:37:17.317Z,16.05
2022-10-22T19:39:44.337Z,16.48
2022-10-22T19:42:11.234Z,15.38
2022-10-22T19:44:38.531Z,19.38
2022-10-22T19:47:05.564Z,13.75
2022-10-22T19:49:33.490Z,12.80
2022-10-22T19:52:00.344Z,11.80
2022-10-22T19:54:27.272Z,10.32
2022-10-22T19:56:54.293Z,14.15
2022-10-22T19:59:22.834Z,16.13
2022-10-22T20:01:50.116Z,16.55
2022-10-22T20:04:18.142Z,12.60
2022-10-22T20:06:45.816Z,16.95
2022-10-22T20:09:13.832Z,15.00
2022-10-22T20:11:40.665Z,14.73
2022-10-22T20:14:08.003Z,10.15
2022-10-22T20:16:36.008Z,10.98
2022-10-22T20:19:06.577Z,9.45
2022-10-22T20:21:34.827Z,13.57
2022-10-22T20:24:02.062Z,11.50
2022-10-22T20:26:29.780Z,10.43
2022-10-22T20:28:57.686Z,9.35
2022-10-22T20:31:28.218Z,9.88
2022-10-22T20:34:01.009Z,9.13
2022-10-22T20:36:29.895Z,12.15
2022-10-22T20:39:07.848Z,11.35
2022-10-22T20:41:37.686Z,9.93
2022-10-22T20:44:05.170Z,10.95
2022-10-22T20:46:33.393Z,15.45
2022-10-22T20:49:05.166Z,9.15
2022-10-22T20:51:32.327Z,10.85
2022-10-22T20:53:59.417Z,8.93
2022-10-22T20:56:27.950Z,10.63
2022-10-22T20:59:04.403Z,12.00
2022-10-22T21:04:05.334Z,8.80
2022-10-22T21:06:32.832Z,11.60
2022-10-22T21:09:00.468Z,7.35
2022-10-22T21:11:27.400Z,12.20
2022-10-22T21:13:54.477Z,9.48
2022-10-22T21:16:21.577Z,8.02
2022-10-22T21:18:48.556Z,7.63
2022-10-22T21:21:17.514Z,9.68
2022-10-22T21:23:44.610Z,10.60
2022-10-22T21:26:18.823Z,8.98
2022-10-22T21:28:46.589Z,13.45
2022-10-22T21:31:20.475Z,11.02
2022-10-22T21:34:15.149Z,6.57
2022-10-22T21:36:42.585Z,8.05
2022-10-22T21:39:09.664Z,11.18
2022-10-22T21:41:37.740Z,7.95
2022-10-22T21:44:06.333Z,6.20
2022-10-22T21:46:34.329Z,9.10
2022-10-22T21:49:03.752Z,8.18
2022-10-22T21:51:33.657Z,8.85
2022-10-22T21:54:01.084Z,8.35
2022-10-22T21:56:34.536Z,11.10
2022-10-22T21:59:03.573Z,8.73
2022-10-22T22:01:30.696Z,6.45
2022-10-22T22:03:58.091Z,6.50
2022-10-22T22:06:30.804Z,8.70
2022-10-22T22:09:00.255Z,6.30
2022-10-22T22:11:28.998Z,12.32
2022-10-22T22:13:57.944Z,7.53
2022-10-22T22:16:29.516Z,6.18
2022-10-22T22:21:32.624Z,9.43
2022-10-22T22:23:59.715Z,4.75
2022-10-22T22:26:30.085Z,6.53
2022-10-22T22:28:59.384Z,8.65
2022-10-22T22:31:33.279Z,5.68
2022-10-22T22:34:03.464Z,3.72
2022-10-22T22:36:38.654Z,6.72
2022-10-22T22:39:31.301Z,7.32
2022-10-22T22:41:58.157Z,7.00
2022-10-22T22:47:16.156Z,8.73
2022-10-22T22:49:43.436Z,7.63
2022-10-22T22:52:10.392Z,6.65
2022-10-22T22:54:37.246Z,6.05
2022-10-22T22:57:04.626Z,6.30
2022-10-22T22:59:31.476Z,6.72
2022-10-22T23:01:58.500Z,16.00
2022-10-22T23:04:26.349Z,4.95
2022-10-22T23:06:53.168Z,8.40
2022-10-22T23:11:52.640Z,9.27
2022-10-22T23:14:20.848Z,7.45
2022-10-22T23:16:50.715Z,8.90
2022-10-22T23:19:20.872Z,7.35
2022-10-22T23:21:54.072Z,9.52
2022-10-22T23:24:27.919Z,5.85
2022-10-22T23:26:59.441Z,6.50
2022-10-22T23:32:23.527Z,6.85
2022-10-22T23:34:50.708Z,10.00
2022-10-22T23:37:17.743Z,7.57
2022-10-22T23:39:44.613Z,6.97
2022-10-22T23:42:11.667Z,6.43
2022-10-22T23:44:38.590Z,7.05
2022-10-22T23:47:05.399Z,8.43
2022-10-22T23:49:32.825Z,9.15
2022-10-22T23:51:59.607Z,12.45
2022-10-22T23:54:26.591Z,9.90
2022-10-22T23:56:53.473Z,11.70
2022-10-22T23:59:21.133Z,11.50
